createdAt,value
2023-02-14T00:01:37.508Z,-0.60
2023-02-14T00:04:04.592Z,-0.60
2023-02-14T00:06:35.124Z,-0.60
2023-02-14T00:09:02.370Z,-0.60
2023-02-14T00:11:29.958Z,-0.50
2023-02-14T00:14:15.629Z,-0.50
2023-02-14T00:16:42.612Z,-0.30
2023-02-14T00:19:09.591Z,-0.50
2023-02-14T00:21:36.975Z,-0.50
2023-02-14T00:24:12.685Z,-0.50
2023-02-14T00:26:39.704Z,-0.50
2023-02-14T00:29:09.413Z,-0.50
2023-02-14T00:31:37.336Z,-0.50
2023-02-14T00:34:04.829Z,-0.60
2023-02-14T00:36:31.635Z,-0.60
2023-02-14T00:38:58.387Z,-0.60
2023-02-14T00:41:25.173Z,-0.60
2023-02-14T00:43:53.160Z,-0.70
2023-02-14T00:46:20.790Z,-0.60
2023-02-14T00:48:47.606Z,-0.60
2023-02-14T00:51:15.542Z,-0.60
2023-02-14T00:53:43.253Z,-0.60
2023-02-14T00:56:11.388Z,-0.60
2023-02-14T00:58:38.163Z,-0.60
2023-02-14T01:01:05.191Z,-0.60
2023-02-14T01:03:32.112Z,-0.60
2023-02-14T01:05:58.933Z,-0.70
2023-02-14T01:08:25.837Z,-0.70
2023-02-14T01:10:52.732Z,-0.70
2023-02-14T01:13:19.714Z,-0.70
2023-02-14T01:15:48.412Z,-0.70
2023-02-14T01:18:15.362Z,-0.70
2023-02-14T01:20:42.199Z,-0.70
2023-02-14T01:27:22.349Z,0.90
2023-02-14T01:29:49.346Z,-0.70
2023-02-14T01:32:16.238Z,-0.70
2023-02-14T01:34:43.115Z,-0.70
2023-02-14T01:37:09.927Z,-0.80
2023-02-14T01:39:36.705Z,-0.80
2023-02-14T01:42:03.575Z,-0.70
2023-02-14T01:44:33.347Z,-0.70
2023-02-14T01:47:00.901Z,-0.70
2023-02-14T01:49:29.842Z,-0.60
2023-02-14T01:52:03.992Z,-0.60
2023-02-14T01:54:31.298Z,-0.70
2023-02-14T01:57:00.231Z,-0.70
2023-02-14T01:59:28.491Z,-0.80
2023-02-14T02:01:55.405Z,-0.80
2023-02-14T02:04:26.431Z,-0.80
2023-02-14T02:06:58.641Z,-0.80
2023-02-14T02:09:46.431Z,-0.80
2023-02-14T02:12:13.231Z,-0.80
2023-02-14T02:14:40.027Z,-0.90
2023-02-14T02:17:32.801Z,-0.80
2023-02-14T02:20:42.926Z,-0.80
2023-02-14T02:23:27.815Z,-0.70
2023-02-14T02:26:22.726Z,-0.70
2023-02-14T02:28:52.331Z,-0.90
2023-02-14T02:31:22.318Z,-0.70
2023-02-14T02:34:20.296Z,-0.70
2023-02-14T02:40:51.153Z,-0.70
2023-02-14T02:43:30.409Z,-0.70
2023-02-14T02:46:22.787Z,-0.60
2023-02-14T02:49:09.039Z,-0.70
2023-02-14T02:52:07.630Z,-0.70
2023-02-14T02:54:39.430Z,-0.70
2023-02-14T02:57:13.628Z,-0.80
2023-02-14T02:59:42.167Z,-0.80
2023-02-14T03:02:14.890Z,-0.80
2023-02-14T03:04:54.665Z,-0.90
2023-02-14T03:07:40.442Z,-0.90
2023-02-14T03:10:14.121Z,-1.90
2023-02-14T03:12:56.201Z,-1.00
2023-02-14T03:15:28.428Z,-1.00
2023-02-14T03:18:21.794Z,-1.00
2023-02-14T03:21:37.288Z,-1.00
2023-02-14T03:24:37.998Z,-1.10
2023-02-14T03:27:17.123Z,-1.10
2023-02-14T03:30:07.946Z,-1.10
2023-02-14T03:32:46.615Z,-1.10
2023-02-14T03:35:19.629Z,-1.20
2023-02-14T03:37:52.194Z,-1.20
2023-02-14T03:40:28.557Z,-1.20
2023-02-14T03:42:57.667Z,-1.20
2023-02-14T03:45:30.824Z,-1.40
2023-02-14T03:47:58.108Z,-1.30
2023-02-14T03:50:24.877Z,1.60
2023-02-14T03:52:52.036Z,-1.30
2023-02-14T03:55:22.753Z,-1.30
2023-02-14T03:57:57.379Z,-1.30
2023-02-14T04:00:24.184Z,-1.30
2023-02-14T04:02:55.962Z,-1.50
2023-02-14T04:05:24.587Z,-1.40
2023-02-14T04:07:53.336Z,-1.40
2023-02-14T04:10:20.262Z,-1.40
2023-02-14T04:12:47.182Z,0.20
2023-02-14T04:15:14.151Z,-1.50
2023-02-14T04:17:59.407Z,-1.50
2023-02-14T04:20:26.242Z,-1.50
2023-02-14T04:22:53.117Z,-1.60
2023-02-14T04:25:20.156Z,-1.60
2023-02-14T04:27:46.985Z,-1.60
2023-02-14T04:30:14.838Z,-1.70
2023-02-14T04:32:41.730Z,-1.70
2023-02-14T04:35:08.535Z,-1.70
2023-02-14T04:37:35.360Z,-1.70
2023-02-14T04:40:02.116Z,-1.80
2023-02-14T04:42:28.873Z,-1.80
2023-02-14T04:44:55.614Z,-1.80
2023-02-14T04:47:22.344Z,-1.80
2023-02-14T04:49:49.076Z,-1.80
2023-02-14T04:52:15.907Z,-1.80
2023-02-14T04:54:42.635Z,-1.80
2023-02-14T04:57:09.384Z,-1.80
2023-02-14T04:59:36.111Z,-1.80
2023-02-14T05:02:02.906Z,-1.70
2023-02-14T05:04:29.658Z,-1.70
2023-02-14T05:06:56.514Z,-1.70
2023-02-14T05:09:23.396Z,-1.70
2023-02-14T05:11:50.128Z,-1.80
2023-02-14T05:14:16.878Z,-1.80
2023-02-14T05:16:43.687Z,-1.80
2023-02-14T05:19:10.506Z,-1.80
2023-02-14T05:21:38.274Z,-1.90
2023-02-14T05:24:05.117Z,-1.90
2023-02-14T05:26:31.880Z,-1.90
2023-02-14T05:28:58.986Z,1.00
2023-02-14T05:31:25.841Z,-1.90
2023-02-14T05:33:52.670Z,-2.00
2023-02-14T05:36:19.446Z,-2.10
2023-02-14T05:38:46.230Z,0.40
2023-02-14T05:41:13.012Z,-2.10
2023-02-14T05:43:39.739Z,-2.10
2023-02-14T05:46:06.605Z,-2.10
2023-02-14T05:48:33.768Z,-2.10
2023-02-14T05:51:08.463Z,-2.10
2023-02-14T05:53:35.281Z,-2.10
2023-02-14T06:00:28.052Z,-2.20
2023-02-14T06:02:54.831Z,-2.20
2023-02-14T06:05:21.722Z,-2.20
2023-02-14T06:07:50.761Z,-2.30
2023-02-14T06:10:18.742Z,-2.30
2023-02-14T06:12:45.847Z,-2.20
2023-02-14T06:15:12.669Z,-2.30
2023-02-14T06:17:39.536Z,-2.30
2023-02-14T06:20:06.992Z,-2.30
2023-02-14T06:22:33.814Z,0.30
2023-02-14T06:25:00.631Z,-2.30
2023-02-14T06:27:29.706Z,-2.70
2023-02-14T06:29:56.616Z,-2.30
2023-02-14T06:32:23.403Z,-2.40
2023-02-14T06:34:50.212Z,-2.30
2023-02-14T06:37:17.043Z,-2.30
2023-02-14T06:39:43.789Z,-2.30
2023-02-14T06:42:10.646Z,-2.30
2023-02-14T06:44:37.453Z,-2.40
2023-02-14T06:47:04.664Z,-2.40
2023-02-14T06:49:31.452Z,-2.30
2023-02-14T06:51:58.253Z,-2.40
2023-02-14T06:54:25.016Z,-2.30
2023-02-14T06:56:51.802Z,-2.30
2023-02-14T06:59:18.571Z,-2.30
2023-02-14T07:01:45.427Z,-2.30
2023-02-14T07:04:12.249Z,-2.30
2023-02-14T07:06:39.130Z,-2.30
2023-02-14T07:09:06.003Z,-2.30
2023-02-14T07:11:32.809Z,-2.40
2023-02-14T07:13:59.572Z,-2.30
2023-02-14T07:16:26.433Z,-2.30
2023-02-14T07:18:53.259Z,-2.30
2023-02-14T07:21:20.005Z,-2.30
2023-02-14T07:23:47.800Z,-2.30
2023-02-14T07:26:18.084Z,-2.20
2023-02-14T07:28:51.751Z,-2.20
2023-02-14T07:31:19.930Z,-2.20
2023-02-14T07:33:46.810Z,-2.10
2023-02-14T07:36:13.652Z,-2.20
2023-02-14T07:38:40.476Z,-2.20
2023-02-14T07:41:07.276Z,-2.20
2023-02-14T07:47:48.761Z,-2.10
2023-02-14T07:50:16.048Z,-2.10
2023-02-14T07:52:42.904Z,-2.00
2023-02-14T07:55:09.832Z,-2.00
2023-02-14T07:57:36.669Z,-2.00
2023-02-14T08:00:04.986Z,-2.00
2023-02-14T08:02:38.747Z,-1.90
2023-02-14T08:05:05.855Z,-1.90
2023-02-14T08:07:32.690Z,-1.90
2023-02-14T08:09:59.456Z,-1.80
2023-02-14T08:12:44.877Z,-1.80
2023-02-14T08:15:30.236Z,-1.70
2023-02-14T08:17:57.282Z,-1.70
2023-02-14T08:20:24.094Z,-1.60
2023-02-14T08:22:50.854Z,-1.60
2023-02-14T08:25:17.751Z,-1.50
2023-02-14T08:27:44.483Z,-1.40
2023-02-14T08:30:11.657Z,-1.30
2023-02-14T08:32:38.573Z,-1.30
2023-02-14T08:35:05.766Z,-1.20
2023-02-14T08:37:32.541Z,-1.00
2023-02-14T08:39:59.286Z,-0.90
2023-02-14T08:42:26.073Z,-0.70
2023-02-14T08:44:52.822Z,-0.60
2023-02-14T08:47:19.584Z,0.40
2023-02-14T08:49:46.376Z,-0.20
2023-02-14T08:52:13.191Z,0.00
2023-02-14T08:54:39.966Z,0.20
2023-02-14T08:57:06.788Z,0.40
2023-02-14T08:59:33.542Z,0.60
2023-02-14T09:02:00.293Z,0.80
2023-02-14T09:08:45.561Z,1.20
2023-02-14T09:11:14.213Z,1.50
2023-02-14T09:13:42.238Z,1.70
2023-02-14T09:16:10.187Z,4.10
2023-02-14T09:18:37.224Z,2.00
2023-02-14T09:21:08.072Z,2.20
2023-02-14T09:23:34.914Z,2.40
2023-02-14T09:26:02.574Z,5.10
2023-02-14T09:28:29.346Z,3.40
2023-02-14T09:30:56.730Z,2.60
2023-02-14T09:33:25.031Z,5.00
2023-02-14T09:35:51.794Z,3.20
2023-02-14T09:38:18.999Z,3.30
2023-02-14T09:40:46.472Z,3.40
2023-02-14T09:43:32.122Z,3.50
2023-02-14T09:45:59.002Z,3.60
2023-02-14T09:48:28.257Z,3.70
2023-02-14T09:50:56.909Z,5.00
2023-02-14T09:58:13.276Z,4.10
2023-02-14T10:00:49.534Z,4.30
2023-02-14T10:03:37.657Z,4.40
2023-02-14T10:06:15.279Z,4.50
2023-02-14T10:08:53.891Z,4.60
2023-02-14T10:11:22.385Z,4.70
2023-02-14T10:14:08.986Z,6.70
2023-02-14T10:16:54.310Z,4.80
2023-02-14T10:19:24.113Z,7.30
2023-02-14T10:21:57.739Z,4.90
2023-02-14T10:24:35.469Z,5.00
2023-02-14T10:27:18.646Z,5.00
2023-02-14T10:29:45.440Z,5.00
2023-02-14T10:32:16.792Z,5.00
2023-02-14T10:34:47.986Z,5.10
2023-02-14T10:37:42.612Z,5.10
2023-02-14T10:40:40.710Z,5.20
2023-02-14T10:43:35.901Z,5.20
2023-02-14T10:46:02.691Z,5.30
2023-02-14T10:48:38.735Z,5.30
2023-02-14T10:51:18.608Z,7.10
2023-02-14T10:54:06.394Z,5.50
2023-02-14T10:56:35.171Z,5.50
2023-02-14T10:59:13.770Z,5.60
2023-02-14T11:01:40.692Z,5.70
2023-02-14T11:04:11.552Z,5.70
2023-02-14T11:06:38.504Z,6.60
2023-02-14T11:09:05.274Z,5.90
2023-02-14T11:11:41.121Z,6.00
2023-02-14T11:14:32.411Z,6.10
2023-02-14T11:17:00.001Z,6.20
2023-02-14T11:19:38.805Z,6.20
2023-02-14T11:22:34.062Z,6.30
2023-02-14T11:25:17.796Z,6.30
2023-02-14T11:27:50.047Z,6.30
2023-02-14T11:30:52.496Z,6.40
2023-02-14T11:33:38.829Z,6.40
2023-02-14T11:36:10.864Z,6.50
2023-02-14T11:38:39.798Z,6.50
2023-02-14T11:41:07.765Z,9.30
2023-02-14T11:43:43.848Z,6.50
2023-02-14T11:46:20.985Z,6.60
2023-02-14T11:49:02.224Z,6.60
2023-02-14T11:51:37.137Z,6.60
2023-02-14T11:54:07.168Z,6.60
2023-02-14T11:57:12.145Z,6.70
2023-02-14T11:59:44.180Z,6.70
2023-02-14T12:03:00.418Z,9.50
2023-02-14T12:05:47.820Z,6.80
2023-02-14T12:08:14.616Z,6.90
2023-02-14T12:10:42.318Z,7.00
2023-02-14T12:13:09.076Z,7.00
2023-02-14T12:15:40.273Z,7.10
2023-02-14T12:18:19.204Z,8.90
2023-02-14T12:20:48.330Z,7.20
2023-02-14T12:23:52.533Z,7.20
2023-02-14T12:26:34.336Z,7.30
2023-02-14T12:29:18.491Z,8.50
2023-02-14T12:31:46.221Z,7.50
2023-02-14T12:34:13.542Z,7.60
2023-02-14T12:36:40.287Z,7.60
2023-02-14T12:39:28.843Z,7.70
2023-02-14T12:42:05.738Z,7.70
2023-02-14T12:44:51.597Z,9.80
2023-02-14T12:47:42.252Z,7.90
2023-02-14T12:50:29.485Z,7.90
2023-02-14T12:53:33.534Z,7.90
2023-02-14T12:56:16.238Z,8.00
2023-02-14T12:59:16.384Z,8.00
2023-02-14T13:02:01.789Z,8.10
2023-02-14T13:04:58.176Z,8.10
2023-02-14T13:07:43.097Z,8.10
2023-02-14T13:10:23.401Z,8.20
2023-02-14T13:13:27.503Z,8.20
2023-02-14T13:16:13.086Z,8.20
2023-02-14T13:18:47.387Z,10.70
2023-02-14T13:21:15.375Z,8.30
2023-02-14T13:23:46.441Z,9.90
2023-02-14T13:26:24.941Z,8.40
2023-02-14T13:33:36.555Z,8.60
2023-02-14T13:36:06.241Z,8.60
2023-02-14T13:38:33.116Z,9.70
2023-02-14T13:41:00.331Z,8.70
2023-02-14T13:43:53.468Z,10.00
2023-02-14T13:46:32.660Z,8.70
2023-02-14T13:49:31.747Z,8.70
2023-02-14T13:52:02.869Z,8.70
2023-02-14T13:54:55.804Z,8.80
2023-02-14T13:57:34.925Z,8.70
2023-02-14T14:00:19.826Z,11.30
2023-02-14T14:02:50.730Z,8.80
2023-02-14T14:05:29.845Z,8.80
2023-02-14T14:08:18.469Z,8.90
2023-02-14T14:15:07.321Z,8.90
2023-02-14T14:17:35.899Z,10.50
2023-02-14T14:20:04.774Z,9.00
2023-02-14T14:22:31.687Z,11.70
2023-02-14T14:25:00.421Z,9.00
2023-02-14T14:27:40.337Z,9.00
2023-02-14T14:30:13.992Z,9.00
2023-02-14T14:32:41.508Z,9.00
2023-02-14T14:35:19.629Z,9.00
2023-02-14T14:37:57.012Z,9.00
2023-02-14T14:40:28.813Z,9.00
2023-02-14T14:42:57.621Z,9.00
2023-02-14T14:45:26.080Z,8.90
2023-02-14T14:47:54.465Z,8.70
2023-02-14T14:50:25.879Z,8.50
2023-02-14T14:53:01.921Z,10.10
2023-02-14T14:55:30.919Z,8.10
2023-02-14T14:58:04.123Z,9.80
2023-02-14T15:00:33.453Z,7.60
2023-02-14T15:03:10.060Z,7.50
2023-02-14T15:05:41.718Z,7.30
2023-02-14T15:08:21.390Z,7.20
2023-02-14T15:10:49.896Z,7.00
2023-02-14T15:13:35.255Z,7.10
2023-02-14T15:16:03.941Z,9.10
2023-02-14T15:18:30.814Z,6.70
2023-02-14T15:20:57.633Z,6.60
2023-02-14T15:23:24.512Z,6.50
2023-02-14T15:25:51.410Z,9.20
2023-02-14T15:28:32.719Z,8.60
2023-02-14T15:31:04.518Z,6.10
2023-02-14T15:33:32.048Z,6.10
2023-02-14T15:36:04.405Z,6.00
2023-02-14T15:38:31.889Z,8.10
2023-02-14T15:40:59.133Z,5.90
2023-02-14T15:43:34.552Z,6.40
2023-02-14T15:46:18.240Z,5.80
2023-02-14T15:48:45.420Z,5.70
2023-02-14T15:51:22.717Z,6.30
2023-02-14T15:53:55.080Z,5.50
2023-02-14T15:56:31.650Z,5.40
2023-02-14T15:59:07.149Z,5.30
2023-02-14T16:01:34.421Z,5.30
2023-02-14T16:04:03.004Z,5.20
2023-02-14T16:06:40.601Z,5.10
2023-02-14T16:09:23.078Z,6.60
2023-02-14T16:11:49.922Z,5.00
2023-02-14T16:14:29.722Z,5.00
2023-02-14T16:17:11.981Z,4.80
2023-02-14T16:19:41.510Z,7.30
2023-02-14T16:22:13.276Z,4.60
2023-02-14T16:24:41.999Z,6.80
2023-02-14T16:27:09.196Z,4.60
2023-02-14T16:29:36.262Z,4.60
2023-02-14T16:32:16.924Z,6.70
2023-02-14T16:34:45.583Z,4.60
2023-02-14T16:41:40.229Z,4.40
2023-02-14T16:44:07.048Z,4.40
2023-02-14T16:46:35.527Z,4.30
2023-02-14T16:49:02.348Z,4.00
2023-02-14T16:51:32.308Z,4.10
2023-02-14T16:54:00.528Z,5.70
2023-02-14T16:56:30.150Z,4.00
2023-02-14T16:59:00.118Z,3.90
2023-02-14T17:01:27.035Z,3.80
2023-02-14T17:03:53.834Z,3.70
2023-02-14T17:06:22.954Z,5.60
2023-02-14T17:08:50.303Z,3.50
2023-02-14T17:11:17.263Z,3.40
2023-02-14T17:13:44.557Z,3.30
2023-02-14T17:16:12.010Z,3.20
2023-02-14T17:18:40.697Z,3.20
2023-02-14T17:21:07.677Z,3.10
2023-02-14T17:23:34.475Z,3.00
2023-02-14T17:26:01.363Z,3.00
2023-02-14T17:28:28.148Z,3.00
2023-02-14T17:30:55.100Z,3.00
2023-02-14T17:33:22.965Z,2.90
2023-02-14T17:35:50.999Z,2.90
2023-02-14T17:38:18.635Z,2.80
2023-02-14T17:40:45.408Z,2.80
2023-02-14T17:43:12.213Z,2.80
2023-02-14T17:45:39.100Z,2.80
2023-02-14T17:48:05.978Z,2.70
2023-02-14T17:50:32.785Z,2.70
2023-02-14T17:52:59.636Z,2.60
2023-02-14T17:55:26.455Z,2.50
2023-02-14T17:57:53.250Z,2.50
2023-02-14T18:00:21.536Z,2.40
2023-02-14T18:02:49.244Z,2.40
2023-02-14T18:05:16.985Z,2.30
2023-02-14T18:07:44.052Z,2.30
2023-02-14T18:10:11.245Z,2.20
2023-02-14T18:12:38.066Z,2.10
2023-02-14T18:15:05.982Z,2.10
2023-02-14T18:17:32.868Z,2.10
2023-02-14T18:19:59.676Z,2.10
2023-02-14T18:22:28.397Z,2.00
2023-02-14T18:24:58.655Z,2.00
2023-02-14T18:27:26.111Z,1.90
2023-02-14T18:29:52.986Z,1.90
2023-02-14T18:32:19.965Z,1.80
2023-02-14T18:34:47.286Z,1.80
2023-02-14T18:37:14.249Z,1.70
2023-02-14T18:39:41.094Z,1.70
2023-02-14T18:42:08.458Z,1.70
2023-02-14T18:44:35.987Z,1.70
2023-02-14T18:47:02.955Z,1.70
2023-02-14T18:49:29.862Z,1.70
2023-02-14T18:51:58.794Z,1.60
2023-02-14T18:54:25.647Z,1.50
2023-02-14T18:56:52.530Z,4.10
2023-02-14T18:59:19.808Z,1.50
2023-02-14T19:01:47.306Z,1.50
2023-02-14T19:04:14.378Z,1.40
2023-02-14T19:06:41.717Z,1.40
2023-02-14T19:09:10.467Z,1.30
2023-02-14T19:11:37.325Z,1.30
2023-02-14T19:14:09.416Z,1.20
2023-02-14T19:16:38.186Z,1.20
2023-02-14T19:19:05.155Z,1.20
2023-02-14T19:21:36.902Z,1.20
2023-02-14T19:24:06.900Z,1.10
2023-02-14T19:26:37.637Z,1.00
2023-02-14T19:29:06.305Z,1.00
2023-02-14T19:31:36.570Z,1.00
2023-02-14T19:34:04.390Z,1.00
2023-02-14T19:36:31.244Z,0.90
2023-02-14T19:38:58.017Z,0.90
2023-02-14T19:41:26.677Z,0.80
2023-02-14T19:43:56.037Z,0.80
2023-02-14T19:46:22.869Z,0.80
2023-02-14T19:53:09.467Z,0.70
2023-02-14T19:55:36.340Z,0.70
2023-02-14T19:58:03.159Z,0.60
2023-02-14T20:00:29.992Z,0.60
2023-02-14T20:02:56.814Z,0.50
2023-02-14T20:05:23.603Z,0.50
2023-02-14T20:11:55.598Z,0.50
2023-02-14T20:14:24.582Z,0.40
2023-02-14T20:16:51.690Z,0.40
2023-02-14T20:19:19.938Z,0.40
2023-02-14T20:21:49.012Z,0.30
2023-02-14T20:24:21.780Z,0.30
2023-02-14T20:26:48.980Z,0.30
2023-02-14T20:29:15.999Z,0.30
2023-02-14T20:31:45.120Z,0.20
2023-02-14T20:34:12.224Z,0.20
2023-02-14T20:36:39.349Z,0.20
2023-02-14T20:39:07.221Z,0.10
2023-02-14T20:41:34.866Z,0.10
2023-02-14T20:44:06.042Z,0.00
2023-02-14T20:46:33.364Z,0.00
2023-02-14T20:49:00.185Z,0.00
2023-02-14T20:51:27.174Z,0.00
2023-02-14T20:53:54.105Z,-0.10
2023-02-14T20:56:21.167Z,-0.20
2023-02-14T20:58:48.229Z,-0.10
2023-02-14T21:01:16.985Z,-0.10
2023-02-14T21:03:46.708Z,-0.20
2023-02-14T21:06:14.321Z,-0.20
2023-02-14T21:08:42.478Z,-0.20
2023-02-14T21:11:09.963Z,-0.20
2023-02-14T21:13:36.818Z,-0.20
2023-02-14T21:16:04.299Z,-0.20
2023-02-14T21:18:32.443Z,2.70
2023-02-14T21:21:12.339Z,-0.20
2023-02-14T21:23:39.214Z,-0.30
2023-02-14T21:26:06.009Z,-0.30
2023-02-14T21:28:32.881Z,1.20
2023-02-14T21:31:06.740Z,-0.30
2023-02-14T21:33:33.642Z,-0.20
2023-02-14T21:36:07.437Z,-0.30
2023-02-14T21:38:34.676Z,-0.20
2023-02-14T21:41:09.046Z,-0.30
2023-02-14T21:43:37.726Z,-0.30
2023-02-14T21:46:08.475Z,-0.30
2023-02-14T21:48:53.634Z,-0.30
2023-02-14T21:51:20.516Z,-0.30
2023-02-14T21:53:47.493Z,-0.40
2023-02-14T21:56:17.934Z,-1.90
2023-02-14T21:58:45.004Z,-0.40
2023-02-14T22:01:19.245Z,-0.60
2023-02-14T22:03:46.050Z,-0.50
2023-02-14T22:06:15.626Z,-0.50
2023-02-14T22:08:42.505Z,-0.50
2023-02-14T22:11:13.831Z,-0.50
2023-02-14T22:13:40.658Z,-0.60
2023-02-14T22:16:09.421Z,-0.70
2023-02-14T22:18:36.395Z,-0.60
2023-02-14T22:21:04.428Z,-0.70
2023-02-14T22:23:34.864Z,-0.70
2023-02-14T22:26:31.461Z,1.80
2023-02-14T22:28:59.398Z,-0.80
2023-02-14T22:31:27.430Z,-0.80
2023-02-14T22:33:54.310Z,-0.90
2023-02-14T22:36:21.113Z,-0.90
2023-02-14T22:38:47.930Z,-0.90
2023-02-14T22:41:16.342Z,-1.00
2023-02-14T22:43:43.201Z,-1.00
2023-02-14T22:46:14.893Z,-1.00
2023-02-14T22:48:41.843Z,-1.90
2023-02-14T22:51:19.266Z,-1.10
2023-02-14T22:53:46.166Z,-1.10
2023-02-14T22:56:17.273Z,-1.00
2023-02-14T22:58:44.194Z,-1.00
2023-02-14T23:01:15.223Z,-1.00
2023-02-14T23:03:42.335Z,-1.00
2023-02-14T23:06:09.286Z,-1.10
2023-02-14T23:08:39.493Z,-1.10
2023-02-14T23:11:07.930Z,-1.10
2023-02-14T23:14:07.456Z,-1.10
2023-02-14T23:16:52.940Z,-1.10
2023-02-14T23:19:39.849Z,-1.10
2023-02-14T23:22:12.454Z,-1.10
2023-02-14T23:28:52.365Z,-1.20
2023-02-14T23:31:19.384Z,-1.30
2023-02-14T23:33:50.326Z,-1.30
2023-02-14T23:36:17.065Z,-1.30
2023-02-14T23:38:43.798Z,-1.30
2023-02-14T23:41:29.373Z,-1.40
2023-02-14T23:43:56.168Z,-1.40
2023-02-14T23:46:22.964Z,-1.40
2023-02-14T23:48:49.803Z,-1.40
2023-02-14T23:51:16.592Z,-1.50
2023-02-14T23:53:43.361Z,-1.60
2023-02-14T23:56:10.174Z,-1.50
2023-02-14T23:58:36.907Z,-1.50
